sensor_id;sensor_type;location;lat;lon;timestamp;P1;durP1;ratioP1;P2;durP2;ratioP2
18592;SDS011;9426;54.118;17.948;2022-11-15T00:03:06;90.07;;;41.30;;
18592;SDS011;9426;54.118;17.948;2022-11-15T00:08:48;91.60;;;40.27;;
18592;SDS011;9426;54.118;17.948;2022-11-15T00:14:31;86.43;;;39.97;;
18592;SDS011;9426;54.118;17.948;2022-11-15T00:20:13;91.73;;;40.90;;
18592;SDS011;9426;54.118;17.948;2022-11-15T00:25:55;100.70;;;43.67;;
18592;SDS011;9426;54.118;17.948;2022-11-15T00:31:39;100.97;;;40.20;;
18592;SDS011;9426;54.118;17.948;2022-11-15T00:37:20;88.97;;;36.60;;
18592;SDS011;9426;54.118;17.948;2022-11-15T00:43:02;87.73;;;36.20;;
18592;SDS011;9426;54.118;17.948;2022-11-15T00:48:46;102.50;;;38.67;;
18592;SDS011;9426;54.118;17.948;2022-11-15T00:54:28;81.33;;;33.60;;
18592;SDS011;9426;54.118;17.948;2022-11-15T01:00:10;86.17;;;34.63;;
18592;SDS011;9426;54.118;17.948;2022-11-15T01:05:56;88.40;;;36.30;;
18592;SDS011;9426;54.118;17.948;2022-11-15T01:11:40;84.17;;;34.27;;
18592;SDS011;9426;54.118;17.948;2022-11-15T01:17:23;112.67;;;38.83;;
18592;SDS011;9426;54.118;17.948;2022-11-15T01:23:06;86.40;;;35.93;;
18592;SDS011;9426;54.118;17.948;2022-11-15T01:28:48;89.97;;;35.53;;
18592;SDS011;9426;54.118;17.948;2022-11-15T01:34:29;140.07;;;40.83;;
18592;SDS011;9426;54.118;17.948;2022-11-15T01:40:13;85.47;;;34.60;;
18592;SDS011;9426;54.118;17.948;2022-11-15T01:45:56;85.13;;;34.93;;
18592;SDS011;9426;54.118;17.948;2022-11-15T01:51:42;79.00;;;33.03;;
18592;SDS011;9426;54.118;17.948;2022-11-15T01:57:26;107.70;;;37.13;;
18592;SDS011;9426;54.118;17.948;2022-11-15T02:03:08;131.03;;;38.30;;
18592;SDS011;9426;54.118;17.948;2022-11-15T02:08:50;78.30;;;33.07;;
18592;SDS011;9426;54.118;17.948;2022-11-15T02:14:34;152.57;;;39.03;;
18592;SDS011;9426;54.118;17.948;2022-11-15T02:32:49;170.20;;;38.40;;
18592;SDS011;9426;54.118;17.948;2022-11-15T02:38:37;100.37;;;34.97;;
18592;SDS011;9426;54.118;17.948;2022-11-15T02:44:24;100.80;;;36.23;;
18592;SDS011;9426;54.118;17.948;2022-11-15T02:50:12;96.77;;;35.00;;
18592;SDS011;9426;54.118;17.948;2022-11-15T02:55:57;111.10;;;37.60;;
18592;SDS011;9426;54.118;17.948;2022-11-15T03:01:41;102.80;;;36.37;;
18592;SDS011;9426;54.118;17.948;2022-11-15T03:07:37;118.17;;;37.37;;
18592;SDS011;9426;54.118;17.948;2022-11-15T03:13:27;160.90;;;40.80;;
18592;SDS011;9426;54.118;17.948;2022-11-15T03:19:18;209.57;;;42.87;;
18592;SDS011;9426;54.118;17.948;2022-11-15T03:25:08;128.50;;;36.03;;
18592;SDS011;9426;54.118;17.948;2022-11-15T03:30:55;105.80;;;35.17;;
18592;SDS011;9426;54.118;17.948;2022-11-15T03:36:39;185.23;;;41.73;;
18592;SDS011;9426;54.118;17.948;2022-11-15T03:42:24;217.13;;;43.30;;
18592;SDS011;9426;54.118;17.948;2022-11-15T03:48:12;124.17;;;37.40;;
18592;SDS011;9426;54.118;17.948;2022-11-15T03:53:56;159.07;;;37.57;;
18592;SDS011;9426;54.118;17.948;2022-11-15T03:59:39;114.13;;;33.83;;
18592;SDS011;9426;54.118;17.948;2022-11-15T04:05:21;91.53;;;31.27;;
18592;SDS011;9426;54.118;17.948;2022-11-15T04:11:03;108.83;;;31.07;;
18592;SDS011;9426;54.118;17.948;2022-11-15T04:16:47;143.57;;;34.30;;
18592;SDS011;9426;54.118;17.948;2022-11-15T04:22:29;93.00;;;31.07;;
18592;SDS011;9426;54.118;17.948;2022-11-15T04:28:28;100.57;;;32.43;;
18592;SDS011;9426;54.118;17.948;2022-11-15T04:34:11;146.10;;;35.00;;
18592;SDS011;9426;54.118;17.948;2022-11-15T04:39:53;83.40;;;27.37;;
18592;SDS011;9426;54.118;17.948;2022-11-15T04:45:35;78.07;;;28.37;;
18592;SDS011;9426;54.118;17.948;2022-11-15T04:51:18;78.57;;;28.90;;
18592;SDS011;9426;54.118;17.948;2022-11-15T04:57:00;79.37;;;28.17;;
18592;SDS011;9426;54.118;17.948;2022-11-15T05:02:42;111.47;;;31.20;;
18592;SDS011;9426;54.118;17.948;2022-11-15T05:08:43;70.23;;;25.40;;
18592;SDS011;9426;54.118;17.948;2022-11-15T05:14:24;84.87;;;28.53;;
18592;SDS011;9426;54.118;17.948;2022-11-15T05:20:07;136.63;;;32.37;;
18592;SDS011;9426;54.118;17.948;2022-11-15T05:25:50;65.47;;;24.83;;
18592;SDS011;9426;54.118;17.948;2022-11-15T05:31:32;70.30;;;25.27;;
18592;SDS011;9426;54.118;17.948;2022-11-15T05:37:14;72.40;;;25.73;;
18592;SDS011;9426;54.118;17.948;2022-11-15T05:42:59;71.83;;;27.17;;
18592;SDS011;9426;54.118;17.948;2022-11-15T05:48:44;72.97;;;25.37;;
18592;SDS011;9426;54.118;17.948;2022-11-15T05:54:30;67.50;;;23.87;;
18592;SDS011;9426;54.118;17.948;2022-11-15T06:05:57;64.47;;;24.10;;
18592;SDS011;9426;54.118;17.948;2022-11-15T06:11:39;58.20;;;23.07;;
18592;SDS011;9426;54.118;17.948;2022-11-15T06:17:22;59.73;;;23.40;;
18592;SDS011;9426;54.118;17.948;2022-11-15T06:23:04;57.57;;;23.10;;
18592;SDS011;9426;54.118;17.948;2022-11-15T06:28:46;57.57;;;22.93;;
18592;SDS011;9426;54.118;17.948;2022-11-15T06:34:29;56.13;;;22.67;;
18592;SDS011;9426;54.118;17.948;2022-11-15T06:40:11;50.63;;;19.73;;
18592;SDS011;9426;54.118;17.948;2022-11-15T06:45:53;51.23;;;20.70;;
18592;SDS011;9426;54.118;17.948;2022-11-15T06:51:37;52.90;;;21.33;;
18592;SDS011;9426;54.118;17.948;2022-11-15T06:57:19;50.77;;;21.30;;
18592;SDS011;9426;54.118;17.948;2022-11-15T07:03:00;47.50;;;20.33;;
18592;SDS011;9426;54.118;17.948;2022-11-15T07:08:44;52.23;;;21.10;;
18592;SDS011;9426;54.118;17.948;2022-11-15T07:14:25;45.33;;;21.50;;
18592;SDS011;9426;54.118;17.948;2022-11-15T07:20:07;89.43;;;25.57;;
18592;SDS011;9426;54.118;17.948;2022-11-15T07:25:51;55.77;;;22.03;;
18592;SDS011;9426;54.118;17.948;2022-11-15T07:31:33;61.47;;;23.73;;
18592;SDS011;9426;54.118;17.948;2022-11-15T07:37:15;53.03;;;21.63;;
18592;SDS011;9426;54.118;17.948;2022-11-15T07:43:02;58.73;;;21.97;;
18592;SDS011;9426;54.118;17.948;2022-11-15T07:48:46;83.07;;;24.53;;
18592;SDS011;9426;54.118;17.948;2022-11-15T07:54:27;53.47;;;21.63;;
18592;SDS011;9426;54.118;17.948;2022-11-15T08:00:11;63.13;;;24.13;;
18592;SDS011;9426;54.118;17.948;2022-11-15T08:05:54;69.07;;;23.83;;
18592;SDS011;9426;54.118;17.948;2022-11-15T08:11:36;53.20;;;23.20;;
18592;SDS011;9426;54.118;17.948;2022-11-15T08:17:18;57.70;;;23.40;;
18592;SDS011;9426;54.118;17.948;2022-11-15T08:23:01;62.73;;;23.07;;
18592;SDS011;9426;54.118;17.948;2022-11-15T08:28:43;52.10;;;21.00;;
18592;SDS011;9426;54.118;17.948;2022-11-15T08:34:26;47.93;;;19.90;;
18592;SDS011;9426;54.118;17.948;2022-11-15T08:40:08;48.43;;;20.47;;
18592;SDS011;9426;54.118;17.948;2022-11-15T08:45:50;49.50;;;21.13;;
18592;SDS011;9426;54.118;17.948;2022-11-15T08:51:33;51.90;;;21.43;;
18592;SDS011;9426;54.118;17.948;2022-11-15T08:57:15;49.60;;;21.87;;
18592;SDS011;9426;54.118;17.948;2022-11-15T09:02:57;48.77;;;20.00;;
18592;SDS011;9426;54.118;17.948;2022-11-15T09:08:40;47.67;;;19.53;;
18592;SDS011;9426;54.118;17.948;2022-11-15T09:14:26;61.30;;;23.23;;
18592;SDS011;9426;54.118;17.948;2022-11-15T09:20:08;45.47;;;20.03;;
18592;SDS011;9426;54.118;17.948;2022-11-15T09:25:52;46.37;;;20.63;;
18592;SDS011;9426;54.118;17.948;2022-11-15T09:31:38;42.37;;;18.97;;
18592;SDS011;9426;54.118;17.948;2022-11-15T09:37:20;39.07;;;18.07;;
18592;SDS011;9426;54.118;17.948;2022-11-15T09:43:11;37.23;;;17.70;;
18592;SDS011;9426;54.118;17.948;2022-11-15T09:49:07;40.60;;;18.97;;
18592;SDS011;9426;54.118;17.948;2022-11-15T09:54:57;40.83;;;18.50;;
18592;SDS011;9426;54.118;17.948;2022-11-15T10:00:22;37.97;;;17.97;;
18592;SDS011;9426;54.118;17.948;2022-11-15T10:06:08;42.33;;;19.57;;
18592;SDS011;9426;54.118;17.948;2022-11-15T10:11:42;43.83;;;20.20;;
18592;SDS011;9426;54.118;17.948;2022-11-15T10:23:10;44.67;;;21.03;;
18592;SDS011;9426;54.118;17.948;2022-11-15T10:28:36;47.27;;;22.50;;
18592;SDS011;9426;54.118;17.948;2022-11-15T10:33:59;44.23;;;21.10;;
18592;SDS011;9426;54.118;17.948;2022-11-15T10:39:36;41.37;;;19.43;;
18592;SDS011;9426;54.118;17.948;2022-11-15T10:44:59;39.43;;;18.93;;
18592;SDS011;9426;54.118;17.948;2022-11-15T10:50:26;46.50;;;21.30;;
18592;SDS011;9426;54.118;17.948;2022-11-15T10:55:52;41.60;;;19.83;;
18592;SDS011;9426;54.118;17.948;2022-11-15T11:01:18;44.33;;;20.47;;
18592;SDS011;9426;54.118;17.948;2022-11-15T11:06:47;50.27;;;23.20;;
18592;SDS011;9426;54.118;17.948;2022-11-15T11:12:12;44.90;;;21.40;;
18592;SDS011;9426;54.118;17.948;2022-11-15T11:17:39;49.83;;;22.67;;
18592;SDS011;9426;54.118;17.948;2022-11-15T11:23:17;54.90;;;24.20;;
18592;SDS011;9426;54.118;17.948;2022-11-15T11:28:51;54.40;;;26.60;;
18592;SDS011;9426;54.118;17.948;2022-11-15T11:34:29;61.57;;;27.70;;
18592;SDS011;9426;54.118;17.948;2022-11-15T11:40:07;48.93;;;22.03;;
18592;SDS011;9426;54.118;17.948;2022-11-15T11:45:50;49.40;;;24.23;;
18592;SDS011;9426;54.118;17.948;2022-11-15T11:51:32;46.37;;;24.37;;
18592;SDS011;9426;54.118;17.948;2022-11-15T11:57:02;49.50;;;22.37;;
18592;SDS011;9426;54.118;17.948;2022-11-15T12:02:30;51.03;;;23.77;;
18592;SDS011;9426;54.118;17.948;2022-11-15T12:07:59;49.23;;;22.63;;
18592;SDS011;9426;54.118;17.948;2022-11-15T12:13:26;49.67;;;22.67;;
18592;SDS011;9426;54.118;17.948;2022-11-15T12:18:58;49.40;;;21.20;;
18592;SDS011;9426;54.118;17.948;2022-11-15T12:24:24;45.00;;;21.10;;
18592;SDS011;9426;54.118;17.948;2022-11-15T12:29:51;48.77;;;21.73;;
18592;SDS011;9426;54.118;17.948;2022-11-15T12:35:23;45.13;;;21.60;;
18592;SDS011;9426;54.118;17.948;2022-11-15T12:47:03;45.20;;;21.93;;
18592;SDS011;9426;54.118;17.948;2022-11-15T12:58:51;47.10;;;23.70;;
18592;SDS011;9426;54.118;17.948;2022-11-15T13:04:21;46.50;;;22.40;;
18592;SDS011;9426;54.118;17.948;2022-11-15T13:09:54;47.20;;;20.97;;
18592;SDS011;9426;54.118;17.948;2022-11-15T13:15:35;40.10;;;19.77;;
18592;SDS011;9426;54.118;17.948;2022-11-15T13:21:03;37.47;;;18.23;;
18592;SDS011;9426;54.118;17.948;2022-11-15T13:26:48;37.53;;;18.30;;
18592;SDS011;9426;54.118;17.948;2022-11-15T13:32:12;31.93;;;16.93;;
18592;SDS011;9426;54.118;17.948;2022-11-15T13:37:37;31.40;;;15.27;;
18592;SDS011;9426;54.118;17.948;2022-11-15T13:43:12;37.33;;;17.67;;
18592;SDS011;9426;54.118;17.948;2022-11-15T13:48:41;31.93;;;16.97;;
18592;SDS011;9426;54.118;17.948;2022-11-15T13:54:09;35.90;;;18.27;;
18592;SDS011;9426;54.118;17.948;2022-11-15T13:59:44;38.37;;;19.30;;
18592;SDS011;9426;54.118;17.948;2022-11-15T14:05:14;41.00;;;21.47;;
18592;SDS011;9426;54.118;17.948;2022-11-15T14:10:38;47.80;;;23.53;;
18592;SDS011;9426;54.118;17.948;2022-11-15T14:16:14;45.77;;;23.10;;
18592;SDS011;9426;54.118;17.948;2022-11-15T14:27:35;51.57;;;25.20;;
18592;SDS011;9426;54.118;17.948;2022-11-15T14:32:58;55.87;;;23.97;;
18592;SDS011;9426;54.118;17.948;2022-11-15T14:38:23;57.77;;;26.30;;
18592;SDS011;9426;54.118;17.948;2022-11-15T14:43:46;52.80;;;24.73;;
18592;SDS011;9426;54.118;17.948;2022-11-15T14:49:09;55.67;;;25.43;;
18592;SDS011;9426;54.118;17.948;2022-11-15T14:54:35;54.77;;;23.80;;
18592;SDS011;9426;54.118;17.948;2022-11-15T14:59:59;45.27;;;20.47;;
18592;SDS011;9426;54.118;17.948;2022-11-15T15:05:33;46.37;;;22.33;;
18592;SDS011;9426;54.118;17.948;2022-11-15T15:10:59;52.70;;;24.60;;
18592;SDS011;9426;54.118;17.948;2022-11-15T15:16:22;60.23;;;25.70;;
18592;SDS011;9426;54.118;17.948;2022-11-15T15:21:46;52.30;;;24.13;;
18592;SDS011;9426;54.118;17.948;2022-11-15T15:27:10;58.33;;;27.37;;
18592;SDS011;9426;54.118;17.948;2022-11-15T15:32:35;58.03;;;26.90;;
18592;SDS011;9426;54.118;17.948;2022-11-15T15:37:59;58.47;;;26.20;;
18592;SDS011;9426;54.118;17.948;2022-11-15T15:43:24;56.37;;;26.43;;
18592;SDS011;9426;54.118;17.948;2022-11-15T15:48:47;52.60;;;24.87;;
18592;SDS011;9426;54.118;17.948;2022-11-15T15:54:10;52.50;;;26.57;;
18592;SDS011;9426;54.118;17.948;2022-11-15T15:59:35;61.40;;;29.07;;
18592;SDS011;9426;54.118;17.948;2022-11-15T16:04:59;58.03;;;26.73;;
18592;SDS011;9426;54.118;17.948;2022-11-15T16:10:23;65.97;;;29.47;;
18592;SDS011;9426;54.118;17.948;2022-11-15T16:15:50;63.93;;;28.73;;
18592;SDS011;9426;54.118;17.948;2022-11-15T16:21:16;63.67;;;29.53;;
18592;SDS011;9426;54.118;17.948;2022-11-15T16:26:39;66.40;;;30.37;;
18592;SDS011;9426;54.118;17.948;2022-11-15T16:32:04;65.60;;;29.50;;
18592;SDS011;9426;54.118;17.948;2022-11-15T16:37:27;60.67;;;28.67;;
18592;SDS011;9426;54.118;17.948;2022-11-15T16:42:50;56.07;;;26.03;;
18592;SDS011;9426;54.118;17.948;2022-11-15T16:48:23;51.37;;;25.83;;
18592;SDS011;9426;54.118;17.948;2022-11-15T16:53:47;61.10;;;29.80;;
18592;SDS011;9426;54.118;17.948;2022-11-15T16:59:13;65.10;;;28.93;;
18592;SDS011;9426;54.118;17.948;2022-11-15T17:04:41;55.63;;;26.73;;
18592;SDS011;9426;54.118;17.948;2022-11-15T17:10:04;56.13;;;28.00;;
18592;SDS011;9426;54.118;17.948;2022-11-15T17:15:28;55.57;;;26.67;;
18592;SDS011;9426;54.118;17.948;2022-11-15T17:20:53;64.90;;;30.17;;
18592;SDS011;9426;54.118;17.948;2022-11-15T17:26:16;226.83;;;116.67;;
18592;SDS011;9426;54.118;17.948;2022-11-15T17:31:56;152.63;;;79.00;;
18592;SDS011;9426;54.118;17.948;2022-11-15T17:37:20;91.90;;;45.13;;
18592;SDS011;9426;54.118;17.948;2022-11-15T17:42:43;89.27;;;42.07;;
18592;SDS011;9426;54.118;17.948;2022-11-15T17:48:08;141.40;;;62.57;;
18592;SDS011;9426;54.118;17.948;2022-11-15T17:53:32;90.20;;;41.27;;
18592;SDS011;9426;54.118;17.948;2022-11-15T17:58:57;161.00;;;62.83;;
18592;SDS011;9426;54.118;17.948;2022-11-15T18:04:21;272.60;;;100.70;;
18592;SDS011;9426;54.118;17.948;2022-11-15T18:09:49;324.00;;;120.03;;
18592;SDS011;9426;54.118;17.948;2022-11-15T18:15:13;262.93;;;98.83;;
18592;SDS011;9426;54.118;17.948;2022-11-15T18:20:36;112.20;;;45.73;;
18592;SDS011;9426;54.118;17.948;2022-11-15T18:26:00;103.37;;;44.83;;
18592;SDS011;9426;54.118;17.948;2022-11-15T18:31:25;130.87;;;51.87;;
18592;SDS011;9426;54.118;17.948;2022-11-15T18:36:50;297.33;;;97.80;;
18592;SDS011;9426;54.118;17.948;2022-11-15T18:42:15;372.27;;;120.67;;
18592;SDS011;9426;54.118;17.948;2022-11-15T18:47:38;305.73;;;113.77;;
18592;SDS011;9426;54.118;17.948;2022-11-15T18:53:01;267.17;;;102.43;;
18592;SDS011;9426;54.118;17.948;2022-11-15T18:58:29;103.53;;;46.83;;
18592;SDS011;9426;54.118;17.948;2022-11-15T19:03:53;96.47;;;41.57;;
18592;SDS011;9426;54.118;17.948;2022-11-15T19:09:17;113.40;;;46.53;;
18592;SDS011;9426;54.118;17.948;2022-11-15T19:14:42;77.90;;;35.20;;
18592;SDS011;9426;54.118;17.948;2022-11-15T19:20:06;101.67;;;50.07;;
18592;SDS011;9426;54.118;17.948;2022-11-15T19:25:29;59.27;;;29.50;;
18592;SDS011;9426;54.118;17.948;2022-11-15T19:30:53;66.63;;;34.20;;
18592;SDS011;9426;54.118;17.948;2022-11-15T19:36:26;81.10;;;42.80;;
18592;SDS011;9426;54.118;17.948;2022-11-15T19:41:52;94.80;;;46.03;;
18592;SDS011;9426;54.118;17.948;2022-11-15T19:47:17;73.10;;;35.80;;
18592;SDS011;9426;54.118;17.948;2022-11-15T19:52:39;65.07;;;32.70;;
18592;SDS011;9426;54.118;17.948;2022-11-15T19:58:03;73.87;;;36.80;;
18592;SDS011;9426;54.118;17.948;2022-11-15T20:03:27;80.83;;;38.27;;
18592;SDS011;9426;54.118;17.948;2022-11-15T20:08:51;97.90;;;49.27;;
18592;SDS011;9426;54.118;17.948;2022-11-15T20:14:14;141.57;;;66.00;;
18592;SDS011;9426;54.118;17.948;2022-11-15T20:19:39;93.30;;;41.70;;
18592;SDS011;9426;54.118;17.948;2022-11-15T20:25:03;86.23;;;41.17;;
18592;SDS011;9426;54.118;17.948;2022-11-15T20:30:27;79.77;;;38.60;;
18592;SDS011;9426;54.118;17.948;2022-11-15T20:35:52;78.47;;;37.93;;
18592;SDS011;9426;54.118;17.948;2022-11-15T20:41:16;62.80;;;29.57;;
18592;SDS011;9426;54.118;17.948;2022-11-15T20:46:39;54.97;;;26.73;;
18592;SDS011;9426;54.118;17.948;2022-11-15T20:52:03;98.60;;;44.10;;
18592;SDS011;9426;54.118;17.948;2022-11-15T20:57:26;66.93;;;30.33;;
18592;SDS011;9426;54.118;17.948;2022-11-15T21:02:50;84.67;;;36.37;;
18592;SDS011;9426;54.118;17.948;2022-11-15T21:08:14;73.97;;;30.77;;
18592;SDS011;9426;54.118;17.948;2022-11-15T21:13:38;83.37;;;34.50;;
18592;SDS011;9426;54.118;17.948;2022-11-15T21:19:01;62.67;;;29.23;;
18592;SDS011;9426;54.118;17.948;2022-11-15T21:24:26;53.17;;;25.33;;
18592;SDS011;9426;54.118;17.948;2022-11-15T21:29:50;56.43;;;25.50;;
18592;SDS011;9426;54.118;17.948;2022-11-15T21:35:13;65.00;;;30.33;;
18592;SDS011;9426;54.118;17.948;2022-11-15T21:40:37;61.93;;;28.90;;
18592;SDS011;9426;54.118;17.948;2022-11-15T21:46:01;54.63;;;26.10;;
18592;SDS011;9426;54.118;17.948;2022-11-15T21:51:25;68.73;;;30.87;;
18592;SDS011;9426;54.118;17.948;2022-11-15T21:56:49;53.37;;;25.27;;
18592;SDS011;9426;54.118;17.948;2022-11-15T22:02:13;49.93;;;23.87;;
18592;SDS011;9426;54.118;17.948;2022-11-15T22:07:35;52.63;;;24.97;;
18592;SDS011;9426;54.118;17.948;2022-11-15T22:13:00;89.13;;;40.23;;
18592;SDS011;9426;54.118;17.948;2022-11-15T22:18:23;106.83;;;54.73;;
18592;SDS011;9426;54.118;17.948;2022-11-15T22:23:46;80.83;;;39.37;;
18592;SDS011;9426;54.118;17.948;2022-11-15T22:29:11;73.13;;;35.07;;
18592;SDS011;9426;54.118;17.948;2022-11-15T22:34:34;144.53;;;68.00;;
18592;SDS011;9426;54.118;17.948;2022-11-15T22:39:57;69.57;;;31.70;;
18592;SDS011;9426;54.118;17.948;2022-11-15T22:45:22;51.57;;;24.60;;
18592;SDS011;9426;54.118;17.948;2022-11-15T22:50:45;190.37;;;90.33;;
18592;SDS011;9426;54.118;17.948;2022-11-15T22:56:08;125.77;;;57.83;;
18592;SDS011;9426;54.118;17.948;2022-11-15T23:01:33;63.50;;;29.93;;
18592;SDS011;9426;54.118;17.948;2022-11-15T23:06:56;51.30;;;23.97;;
18592;SDS011;9426;54.118;17.948;2022-11-15T23:12:19;70.07;;;36.13;;
18592;SDS011;9426;54.118;17.948;2022-11-15T23:18:02;59.97;;;28.93;;
18592;SDS011;9426;54.118;17.948;2022-11-15T23:23:25;69.67;;;31.03;;
18592;SDS011;9426;54.118;17.948;2022-11-15T23:28:48;47.77;;;23.13;;
18592;SDS011;9426;54.118;17.948;2022-11-15T23:34:13;48.00;;;23.17;;
18592;SDS011;9426;54.118;17.948;2022-11-15T23:39:38;56.27;;;26.57;;
18592;SDS011;9426;54.118;17.948;2022-11-15T23:45:02;111.83;;;54.33;;
18592;SDS011;9426;54.118;17.948;2022-11-15T23:50:27;59.10;;;29.43;;
18592;SDS011;9426;54.118;17.948;2022-11-15T23:55:53;111.40;;;53.90;;
